createdAt,value
2018-05-03T00:00:46.397Z,0
2018-05-03T00:01:47.068Z,0
2018-05-03T00:02:47.741Z,0
2018-05-03T00:03:48.414Z,0
2018-05-03T00:04:49.085Z,0
2018-05-03T00:05:49.757Z,0
2018-05-03T00:06:50.430Z,0
2018-05-03T00:07:51.099Z,0
2018-05-03T00:08:51.773Z,0
2018-05-03T00:09:52.443Z,0
2018-05-03T00:10:53.116Z,0
2018-05-03T00:11:53.799Z,0
2018-05-03T00:12:54.469Z,0
2018-05-03T00:13:55.141Z,0
2018-05-03T00:14:55.814Z,0
2018-05-03T00:15:56.488Z,0
2018-05-03T00:16:57.155Z,0
2018-05-03T00:17:57.831Z,0
2018-05-03T00:18:58.505Z,0
2018-05-03T00:19:59.178Z,0
2018-05-03T00:20:59.850Z,0
2018-05-03T00:22:00.520Z,0
2018-05-03T00:23:01.199Z,0
2018-05-03T00:24:01.874Z,0
2018-05-03T00:25:02.584Z,0
2018-05-03T00:26:03.217Z,0
2018-05-03T00:27:03.891Z,0
2018-05-03T00:28:04.561Z,0
2018-05-03T00:29:05.233Z,0
2018-05-03T00:30:05.904Z,0
2018-05-03T00:31:06.584Z,0
2018-05-03T00:32:07.257Z,0
2018-05-03T00:33:07.928Z,0
2018-05-03T00:34:08.601Z,0
2018-05-03T00:35:09.273Z,0
2018-05-03T00:36:09.944Z,0
2018-05-03T00:37:10.616Z,0
2018-05-03T00:38:11.288Z,0
2018-05-03T00:39:11.964Z,0
2018-05-03T00:40:12.635Z,0
2018-05-03T00:41:13.309Z,0
2018-05-03T00:42:13.979Z,0
2018-05-03T00:43:14.652Z,0
2018-05-03T00:44:15.329Z,0
2018-05-03T00:45:16.000Z,0
2018-05-03T00:46:16.673Z,0
2018-05-03T00:47:17.346Z,0
2018-05-03T00:48:18.021Z,0
2018-05-03T00:49:18.695Z,0
2018-05-03T00:50:19.364Z,0
2018-05-03T00:51:20.034Z,0
2018-05-03T00:52:20.708Z,0
2018-05-03T00:53:21.383Z,0
2018-05-03T00:54:22.055Z,0
2018-05-03T00:55:22.726Z,0
2018-05-03T00:56:23.398Z,0
2018-05-03T00:57:24.067Z,0
2018-05-03T00:58:24.739Z,0
2018-05-03T00:59:25.414Z,0
2018-05-03T01:00:26.090Z,0
2018-05-03T01:01:26.763Z,0
2018-05-03T01:02:27.433Z,0
2018-05-03T01:03:28.106Z,0
2018-05-03T01:04:28.775Z,0
2018-05-03T01:05:29.450Z,0
2018-05-03T01:06:30.123Z,0
2018-05-03T01:07:30.803Z,0
2018-05-03T01:08:31.480Z,0
2018-05-03T01:09:32.157Z,0
2018-05-03T01:10:32.829Z,0
2018-05-03T01:11:33.506Z,0
2018-05-03T01:12:34.175Z,0
2018-05-03T01:13:34.846Z,0
2018-05-03T01:14:35.516Z,0
2018-05-03T01:15:36.199Z,0
2018-05-03T01:16:36.873Z,0
2018-05-03T01:17:37.544Z,0
2018-05-03T01:18:38.214Z,0
2018-05-03T01:19:38.887Z,0
2018-05-03T01:20:39.558Z,0
2018-05-03T01:21:40.230Z,0
2018-05-03T01:22:40.904Z,0
2018-05-03T01:23:41.574Z,0
2018-05-03T01:24:42.248Z,0
2018-05-03T01:25:42.918Z,0
2018-05-03T01:26:43.597Z,0
2018-05-03T01:27:44.267Z,0
2018-05-03T01:28:44.936Z,0
2018-05-03T01:29:45.609Z,0
2018-05-03T01:30:46.283Z,0
2018-05-03T01:31:46.955Z,0
2018-05-03T01:32:47.627Z,0
2018-05-03T01:33:48.297Z,0
2018-05-03T01:34:48.968Z,0
2018-05-03T01:35:49.638Z,0
2018-05-03T01:36:50.309Z,0
2018-05-03T01:37:50.984Z,0
2018-05-03T01:38:51.656Z,0
2018-05-03T01:39:52.326Z,0
2018-05-03T01:40:52.996Z,0
2018-05-03T01:41:53.668Z,0
2018-05-03T01:42:54.354Z,0
2018-05-03T01:43:55.022Z,0
2018-05-03T01:44:55.695Z,0
2018-05-03T01:45:56.366Z,0
2018-05-03T01:46:57.040Z,0
2018-05-03T01:47:57.709Z,0
2018-05-03T01:48:58.397Z,0
2018-05-03T01:49:59.064Z,0
2018-05-03T01:50:59.738Z,0
2018-05-03T01:52:00.409Z,0
2018-05-03T01:53:01.087Z,0
2018-05-03T01:54:01.751Z,0
2018-05-03T01:55:02.425Z,0
2018-05-03T01:56:03.102Z,0
2018-05-03T01:57:03.773Z,0
2018-05-03T01:58:04.442Z,0
2018-05-03T01:59:05.117Z,0
2018-05-03T02:00:05.793Z,0
2018-05-03T02:01:06.462Z,0
2018-05-03T02:02:07.131Z,0
2018-05-03T02:03:07.802Z,0
2018-05-03T02:04:08.476Z,0
2018-05-03T02:05:09.145Z,0
2018-05-03T02:06:09.816Z,0
2018-05-03T02:07:10.488Z,0
2018-05-03T02:08:11.161Z,0
2018-05-03T02:09:11.829Z,0
2018-05-03T02:10:12.496Z,0
2018-05-03T02:11:13.164Z,0
2018-05-03T02:12:13.838Z,0
2018-05-03T02:13:14.507Z,0
2018-05-03T02:14:15.176Z,0
2018-05-03T02:15:15.848Z,0
2018-05-03T02:16:16.519Z,0
2018-05-03T02:17:17.233Z,0
2018-05-03T02:18:17.860Z,0
2018-05-03T02:19:18.543Z,0
2018-05-03T02:20:19.213Z,0
2018-05-03T02:21:19.886Z,0
2018-05-03T02:22:20.559Z,0
2018-05-03T02:23:21.232Z,0
2018-05-03T02:24:21.895Z,0
2018-05-03T02:25:22.572Z,0
2018-05-03T02:27:23.917Z,0
2018-05-03T02:28:24.588Z,0
2018-05-03T02:29:25.259Z,0
2018-05-03T02:30:25.928Z,0
2018-05-03T02:31:26.597Z,0
2018-05-03T02:32:27.271Z,0
2018-05-03T02:33:27.941Z,0
2018-05-03T02:34:28.611Z,0
2018-05-03T02:35:29.283Z,0
2018-05-03T02:36:30.005Z,0
2018-05-03T02:37:30.627Z,0
2018-05-03T02:38:31.303Z,0
2018-05-03T02:39:31.968Z,0
2018-05-03T02:40:32.640Z,0
2018-05-03T02:41:33.315Z,0
2018-05-03T02:42:33.989Z,0
2018-05-03T02:43:34.661Z,0
2018-05-03T02:44:35.344Z,0
2018-05-03T02:45:36.012Z,0
2018-05-03T02:46:36.684Z,0
2018-05-03T02:47:37.353Z,0
2018-05-03T02:48:38.030Z,0
2018-05-03T02:49:38.698Z,0
2018-05-03T02:50:39.367Z,0
2018-05-03T02:51:40.044Z,0
2018-05-03T02:52:40.709Z,0
2018-05-03T02:53:41.382Z,0
2018-05-03T02:54:42.051Z,0
2018-05-03T02:55:42.720Z,0
2018-05-03T02:56:43.399Z,0
2018-05-03T02:57:44.067Z,0
2018-05-03T02:58:44.737Z,0
2018-05-03T02:59:45.410Z,0
2018-05-03T03:00:46.086Z,0
2018-05-03T03:01:46.764Z,0
2018-05-03T03:02:47.436Z,0
2018-05-03T03:03:48.113Z,0
2018-05-03T03:04:48.781Z,0
2018-05-03T03:05:49.458Z,0
2018-05-03T03:06:50.125Z,0
2018-05-03T03:07:50.796Z,0
2018-05-03T03:08:51.474Z,0
2018-05-03T03:09:52.137Z,0
2018-05-03T03:10:52.823Z,0
2018-05-03T03:11:53.494Z,0
2018-05-03T03:12:54.175Z,0
2018-05-03T03:13:54.845Z,0
2018-05-03T03:14:55.517Z,0
2018-05-03T03:15:56.189Z,0
2018-05-03T03:16:56.862Z,0
2018-05-03T03:17:57.538Z,0
2018-05-03T03:18:58.206Z,0
2018-05-03T03:19:58.874Z,0
2018-05-03T03:20:59.556Z,0
2018-05-03T03:22:00.294Z,0
2018-05-03T03:23:00.898Z,0
2018-05-03T03:24:01.627Z,0
2018-05-03T03:25:02.298Z,0
2018-05-03T03:26:02.975Z,0
2018-05-03T03:27:03.656Z,0
2018-05-03T03:28:04.330Z,0
2018-05-03T03:29:05.002Z,0
2018-05-03T03:30:05.676Z,0
2018-05-03T03:31:06.354Z,0
2018-05-03T03:32:07.024Z,0
2018-05-03T03:33:07.691Z,0
2018-05-03T03:34:08.369Z,0
2018-05-03T03:35:09.039Z,0
2018-05-03T03:36:09.709Z,0
2018-05-03T03:37:10.379Z,0
2018-05-03T03:38:11.052Z,0
2018-05-03T03:39:11.723Z,0
2018-05-03T03:40:12.400Z,0
2018-05-03T03:41:13.068Z,0
2018-05-03T03:42:13.746Z,0
2018-05-03T03:43:14.423Z,0
2018-05-03T03:44:15.093Z,0
2018-05-03T03:45:15.767Z,0
2018-05-03T03:46:16.437Z,0
2018-05-03T03:47:17.110Z,0
2018-05-03T03:48:17.784Z,0
2018-05-03T03:49:18.460Z,0
2018-05-03T03:50:19.139Z,0
2018-05-03T03:51:19.816Z,0
2018-05-03T03:52:20.485Z,0
2018-05-03T03:53:21.232Z,0
2018-05-03T03:54:21.824Z,0
2018-05-03T03:55:22.497Z,0
2018-05-03T03:56:23.172Z,0
2018-05-03T03:57:23.847Z,0
2018-05-03T03:58:24.522Z,0
2018-05-03T03:59:25.193Z,5
2018-05-03T04:00:25.866Z,5
2018-05-03T04:01:26.540Z,5
2018-05-03T04:02:27.421Z,5
2018-05-03T04:03:28.094Z,5
2018-05-03T04:04:28.768Z,5
2018-05-03T04:05:29.450Z,5
2018-05-03T04:06:30.123Z,5
2018-05-03T04:07:30.798Z,5
2018-05-03T04:08:31.468Z,5
2018-05-03T04:09:32.143Z,10
2018-05-03T04:10:32.817Z,10
2018-05-03T04:11:33.498Z,10
2018-05-03T04:12:34.172Z,10
2018-05-03T04:13:34.845Z,10
2018-05-03T04:14:35.528Z,10
2018-05-03T04:15:36.199Z,10
2018-05-03T04:16:36.914Z,15
2018-05-03T04:17:37.554Z,15
2018-05-03T04:18:38.228Z,15
2018-05-03T04:19:38.901Z,15
2018-05-03T04:20:39.569Z,15
2018-05-03T04:21:40.241Z,15
2018-05-03T04:22:40.914Z,15
2018-05-03T04:23:41.596Z,15
2018-05-03T04:24:42.266Z,15
2018-05-03T04:25:42.949Z,20
2018-05-03T04:26:43.628Z,20
2018-05-03T04:27:44.302Z,20
2018-05-03T04:28:44.975Z,20
2018-05-03T04:29:45.648Z,20
2018-05-03T04:30:46.325Z,20
2018-05-03T04:31:47.006Z,20
2018-05-03T04:32:47.680Z,20
2018-05-03T04:33:48.357Z,20
2018-05-03T04:34:49.033Z,20
2018-05-03T04:35:49.708Z,20
2018-05-03T04:36:50.381Z,20
2018-05-03T04:37:51.055Z,20
2018-05-03T04:38:51.729Z,20
2018-05-03T04:39:52.409Z,20
2018-05-03T04:40:53.087Z,20
2018-05-03T04:41:53.765Z,20
2018-05-03T04:42:54.432Z,20
2018-05-03T04:43:55.109Z,25
2018-05-03T04:44:55.812Z,25
2018-05-03T04:45:56.457Z,25
2018-05-03T04:46:57.143Z,25
2018-05-03T04:47:57.802Z,25
2018-05-03T04:48:58.475Z,20
2018-05-03T04:49:59.152Z,20
2018-05-03T04:50:59.829Z,20
2018-05-03T04:52:00.499Z,20
2018-05-03T04:53:01.176Z,20
2018-05-03T04:54:01.845Z,20
2018-05-03T04:55:02.524Z,20
2018-05-03T04:56:03.198Z,20
2018-05-03T04:57:03.875Z,20
2018-05-03T04:58:04.557Z,20
2018-05-03T04:59:05.232Z,20
2018-05-03T05:00:05.901Z,20
2018-05-03T05:01:06.586Z,20
2018-05-03T05:02:07.267Z,25
2018-05-03T05:03:07.941Z,25
2018-05-03T05:04:08.618Z,25
2018-05-03T05:05:09.292Z,25
2018-05-03T05:06:09.966Z,25
2018-05-03T05:07:10.639Z,30
2018-05-03T05:08:11.310Z,30
2018-05-03T05:09:11.984Z,35
2018-05-03T05:10:12.661Z,35
2018-05-03T05:11:13.338Z,35
2018-05-03T05:12:14.024Z,35
2018-05-03T05:13:14.695Z,40
2018-05-03T05:14:15.368Z,40
2018-05-03T05:15:16.045Z,40
2018-05-03T05:16:16.722Z,40
2018-05-03T05:17:17.398Z,45
2018-05-03T05:18:18.070Z,45
2018-05-03T05:19:18.743Z,45
2018-05-03T05:20:19.420Z,50
2018-05-03T05:21:20.175Z,50
2018-05-03T05:22:20.774Z,55
2018-05-03T05:23:21.450Z,55
2018-05-03T05:24:22.125Z,55
2018-05-03T05:25:22.805Z,60
2018-05-03T05:26:23.478Z,60
2018-05-03T05:27:24.152Z,65
2018-05-03T05:28:24.829Z,65
2018-05-03T05:29:25.504Z,65
2018-05-03T05:30:26.186Z,65
2018-05-03T05:31:26.863Z,70
2018-05-03T05:32:27.536Z,70
2018-05-03T05:33:28.218Z,70
2018-05-03T05:34:28.913Z,70
2018-05-03T05:35:29.591Z,70
2018-05-03T05:36:30.263Z,75
2018-05-03T05:37:30.940Z,75
2018-05-03T05:38:31.639Z,80
2018-05-03T05:39:32.297Z,85
2018-05-03T05:40:32.973Z,85
2018-05-03T05:41:33.645Z,95
2018-05-03T05:42:34.332Z,100
2018-05-03T05:43:35.011Z,100
2018-05-03T05:44:35.688Z,105
2018-05-03T05:45:36.364Z,110
2018-05-03T05:46:37.042Z,110
2018-05-03T05:47:37.724Z,110
2018-05-03T05:48:38.398Z,110
2018-05-03T05:49:39.077Z,110
2018-05-03T05:50:39.760Z,110
2018-05-03T05:51:40.441Z,110
2018-05-03T05:52:41.118Z,110
2018-05-03T05:53:41.795Z,105
2018-05-03T05:54:42.468Z,105
2018-05-03T05:55:43.144Z,110
2018-05-03T05:56:43.845Z,110
2018-05-03T05:57:44.496Z,110
2018-05-03T05:58:45.173Z,115
2018-05-03T05:59:45.846Z,120
2018-05-03T06:00:46.524Z,120
2018-05-03T06:01:47.209Z,125
2018-05-03T06:02:47.929Z,125
2018-05-03T06:03:48.566Z,120
2018-05-03T06:04:49.242Z,120
2018-05-03T06:05:49.917Z,120
2018-05-03T06:06:50.596Z,120
2018-05-03T06:07:51.272Z,120
2018-05-03T06:08:51.949Z,130
2018-05-03T06:09:52.625Z,125
2018-05-03T06:10:53.308Z,125
2018-05-03T06:11:53.982Z,125
2018-05-03T06:12:54.664Z,130
2018-05-03T06:13:55.341Z,130
2018-05-03T06:14:56.024Z,130
2018-05-03T06:15:56.702Z,130
2018-05-03T06:16:57.374Z,130
2018-05-03T06:17:58.053Z,130
2018-05-03T06:18:58.736Z,135
2018-05-03T06:19:59.410Z,135
2018-05-03T06:21:00.086Z,140
2018-05-03T06:22:00.765Z,140
2018-05-03T06:23:01.440Z,140
2018-05-03T06:24:02.124Z,145
2018-05-03T06:25:02.793Z,145
2018-05-03T06:26:03.494Z,145
2018-05-03T06:27:04.155Z,145
2018-05-03T06:28:04.835Z,145
2018-05-03T06:29:05.521Z,155
2018-05-03T06:30:06.197Z,150
2018-05-03T06:31:06.882Z,150
2018-05-03T06:32:07.561Z,150
2018-05-03T06:33:08.234Z,150
2018-05-03T06:34:08.915Z,150
2018-05-03T06:35:09.590Z,150
2018-05-03T06:36:10.273Z,150
2018-05-03T06:37:10.964Z,145
2018-05-03T06:38:11.640Z,145
2018-05-03T06:39:12.313Z,140
2018-05-03T06:40:13.044Z,140
2018-05-03T06:41:13.672Z,140
2018-05-03T06:42:14.350Z,135
2018-05-03T06:43:15.025Z,135
2018-05-03T06:44:15.700Z,135
2018-05-03T06:45:16.460Z,135
2018-05-03T06:46:17.061Z,130
2018-05-03T06:47:17.744Z,135
2018-05-03T06:48:18.422Z,135
2018-05-03T06:49:19.117Z,135
2018-05-03T06:50:19.793Z,135
2018-05-03T06:51:20.469Z,140
2018-05-03T06:52:21.146Z,140
2018-05-03T06:53:21.823Z,145
2018-05-03T06:54:22.509Z,145
2018-05-03T06:55:23.185Z,150
2018-05-03T06:56:23.889Z,150
2018-05-03T06:57:24.569Z,150
2018-05-03T06:58:25.257Z,150
2018-05-03T06:59:25.936Z,150
2018-05-03T07:00:26.613Z,155
2018-05-03T07:01:27.290Z,155
2018-05-03T07:02:27.967Z,160
2018-05-03T07:03:28.650Z,160
2018-05-03T07:04:29.357Z,160
2018-05-03T07:05:30.015Z,175
2018-05-03T07:06:30.702Z,185
2018-05-03T07:07:31.385Z,185
2018-05-03T07:08:32.061Z,190
2018-05-03T07:09:32.744Z,190
2018-05-03T07:10:33.426Z,190
2018-05-03T07:11:34.097Z,190
2018-05-03T07:12:34.777Z,190
2018-05-03T07:13:35.454Z,205
2018-05-03T07:14:36.127Z,200
2018-05-03T07:15:36.812Z,200
2018-05-03T07:16:37.494Z,210
2018-05-03T07:17:38.166Z,210
2018-05-03T07:18:38.841Z,215
2018-05-03T07:19:39.518Z,220
2018-05-03T07:20:40.203Z,225
2018-05-03T07:21:40.883Z,230
2018-05-03T07:22:41.561Z,230
2018-05-03T07:23:42.277Z,230
2018-05-03T07:24:42.916Z,230
2018-05-03T07:25:43.594Z,235
2018-05-03T07:26:44.274Z,240
2018-05-03T07:27:44.950Z,235
2018-05-03T07:28:45.629Z,230
2018-05-03T07:29:46.304Z,225
2018-05-03T07:30:46.990Z,220
2018-05-03T07:31:47.666Z,210
2018-05-03T07:32:48.346Z,205
2018-05-03T07:33:49.027Z,200
2018-05-03T07:34:49.797Z,200
2018-05-03T07:35:50.393Z,195
2018-05-03T07:36:51.063Z,195
2018-05-03T07:37:51.747Z,200
2018-05-03T07:38:52.425Z,200
2018-05-03T07:39:53.106Z,195
2018-05-03T07:40:53.830Z,195
2018-05-03T07:41:54.461Z,195
2018-05-03T07:42:55.139Z,195
2018-05-03T07:43:55.817Z,200
2018-05-03T07:44:56.499Z,200
2018-05-03T07:45:57.180Z,205
2018-05-03T07:46:57.857Z,205
2018-05-03T07:47:58.534Z,205
2018-05-03T07:48:59.214Z,205
2018-05-03T07:49:59.868Z,205
2018-05-03T07:51:00.556Z,200
2018-05-03T07:52:01.232Z,195
2018-05-03T07:53:01.906Z,195
2018-05-03T07:54:02.595Z,195
2018-05-03T07:55:03.268Z,205
2018-05-03T07:56:03.951Z,205
2018-05-03T07:57:04.635Z,215
2018-05-03T07:58:05.313Z,220
2018-05-03T07:59:05.993Z,220
2018-05-03T08:00:06.671Z,225
2018-05-03T08:01:07.348Z,230
2018-05-03T08:02:08.088Z,235
2018-05-03T08:03:08.703Z,245
2018-05-03T08:04:09.378Z,255
2018-05-03T08:05:10.057Z,260
2018-05-03T08:06:10.733Z,265
2018-05-03T08:07:11.410Z,250
2018-05-03T08:08:12.083Z,245
2018-05-03T08:09:12.765Z,240
2018-05-03T08:10:13.454Z,240
2018-05-03T08:11:14.133Z,240
2018-05-03T08:12:14.809Z,250
2018-05-03T08:13:15.489Z,255
2018-05-03T08:14:16.163Z,260
2018-05-03T08:15:16.847Z,260
2018-05-03T08:16:17.522Z,265
2018-05-03T08:17:18.198Z,265
2018-05-03T08:18:18.878Z,265
2018-05-03T08:19:19.553Z,265
2018-05-03T08:20:20.235Z,265
2018-05-03T08:21:20.917Z,260
2018-05-03T08:22:21.682Z,255
2018-05-03T08:23:22.275Z,255
2018-05-03T08:24:22.957Z,245
2018-05-03T08:25:23.634Z,235
2018-05-03T08:26:24.316Z,230
2018-05-03T08:27:25.000Z,230
2018-05-03T08:28:25.683Z,235
2018-05-03T08:29:26.361Z,245
2018-05-03T08:30:27.044Z,255
2018-05-03T08:31:27.728Z,255
2018-05-03T08:32:28.409Z,265
2018-05-03T08:33:29.089Z,270
2018-05-03T08:34:29.768Z,280
2018-05-03T08:35:30.445Z,290
2018-05-03T08:36:31.129Z,295
2018-05-03T08:37:31.808Z,300
2018-05-03T08:38:32.496Z,300
2018-05-03T08:39:33.174Z,300
2018-05-03T08:40:33.854Z,300
2018-05-03T08:41:34.534Z,300
2018-05-03T08:42:35.221Z,305
2018-05-03T08:43:35.894Z,310
2018-05-03T08:44:36.573Z,320
2018-05-03T08:45:37.254Z,325
2018-05-03T08:46:37.930Z,335
2018-05-03T08:47:38.606Z,340
2018-05-03T08:48:39.292Z,340
2018-05-03T08:49:39.970Z,340
2018-05-03T08:50:40.646Z,340
2018-05-03T08:51:41.326Z,340
2018-05-03T08:52:42.007Z,335
2018-05-03T08:53:42.686Z,345
2018-05-03T08:54:43.364Z,345
2018-05-03T08:55:44.076Z,350
2018-05-03T08:56:44.726Z,355
2018-05-03T08:57:45.402Z,360
2018-05-03T08:58:46.081Z,360
2018-05-03T08:59:46.763Z,355
2018-05-03T09:00:47.442Z,350
2018-05-03T09:01:48.199Z,330
2018-05-03T09:02:48.818Z,315
2018-05-03T09:03:49.488Z,305
2018-05-03T09:04:50.165Z,305
2018-05-03T09:05:50.847Z,305
2018-05-03T09:06:51.527Z,315
2018-05-03T09:07:52.292Z,310
2018-05-03T09:08:52.891Z,310
2018-05-03T09:09:53.572Z,305
2018-05-03T09:10:54.254Z,290
2018-05-03T09:11:54.934Z,280
2018-05-03T09:12:55.616Z,270
2018-05-03T09:13:56.297Z,255
2018-05-03T09:14:56.975Z,255
2018-05-03T09:15:57.653Z,250
2018-05-03T09:16:58.334Z,240
2018-05-03T09:17:59.015Z,240
2018-05-03T09:18:59.698Z,235
2018-05-03T09:20:00.384Z,230
2018-05-03T09:21:01.066Z,225
2018-05-03T09:22:01.832Z,225
2018-05-03T09:23:02.436Z,220
2018-05-03T09:24:03.127Z,220
2018-05-03T09:25:03.797Z,220
2018-05-03T09:26:04.479Z,215
2018-05-03T09:27:05.157Z,210
2018-05-03T09:28:05.833Z,220
2018-05-03T09:29:06.513Z,225
2018-05-03T09:30:07.192Z,215
2018-05-03T09:31:07.875Z,225
2018-05-03T09:32:08.566Z,230
2018-05-03T09:33:09.248Z,230
2018-05-03T09:34:09.932Z,235
2018-05-03T09:35:10.624Z,240
2018-05-03T09:36:11.304Z,250
2018-05-03T09:37:11.982Z,265
2018-05-03T09:38:12.661Z,275
2018-05-03T09:39:13.388Z,285
2018-05-03T09:40:14.036Z,300
2018-05-03T09:41:14.714Z,310
2018-05-03T09:42:15.393Z,315
2018-05-03T09:43:16.073Z,315
2018-05-03T09:44:16.755Z,330
2018-05-03T09:45:17.438Z,340
2018-05-03T09:46:18.119Z,355
2018-05-03T09:47:18.801Z,360
2018-05-03T09:48:19.486Z,355
2018-05-03T09:49:20.165Z,350
2018-05-03T09:50:20.846Z,355
2018-05-03T09:51:21.528Z,365
2018-05-03T09:52:22.240Z,370
2018-05-03T09:53:22.894Z,375
2018-05-03T09:54:23.575Z,380
2018-05-03T09:55:24.256Z,385
2018-05-03T09:56:24.939Z,385
2018-05-03T09:57:25.620Z,385
2018-05-03T09:58:26.302Z,380
2018-05-03T09:59:27.099Z,380
2018-05-03T10:00:27.664Z,375
2018-05-03T10:01:28.348Z,375
2018-05-03T10:02:29.037Z,370
2018-05-03T10:03:29.718Z,370
2018-05-03T10:04:30.399Z,370
2018-05-03T10:05:31.078Z,375
2018-05-03T10:06:31.757Z,375
2018-05-03T10:07:32.439Z,380
2018-05-03T10:08:33.127Z,380
2018-05-03T10:09:33.801Z,380
2018-05-03T10:10:34.480Z,375
2018-05-03T10:11:35.161Z,370
2018-05-03T10:12:35.840Z,370
2018-05-03T10:13:36.522Z,370
2018-05-03T10:14:37.259Z,365
2018-05-03T10:15:37.885Z,365
2018-05-03T10:16:38.575Z,365
2018-05-03T10:17:39.258Z,360
2018-05-03T10:18:39.948Z,355
2018-05-03T10:19:40.628Z,355
2018-05-03T10:20:41.306Z,355
2018-05-03T10:21:41.995Z,355
2018-05-03T10:22:42.678Z,355
2018-05-03T10:23:43.360Z,365
2018-05-03T10:24:44.043Z,370
2018-05-03T10:25:44.722Z,375
2018-05-03T10:26:45.405Z,375
2018-05-03T10:27:46.089Z,370
2018-05-03T10:28:46.769Z,365
2018-05-03T10:29:47.459Z,360
2018-05-03T10:30:48.136Z,360
2018-05-03T10:31:48.818Z,355
2018-05-03T10:32:49.501Z,355
2018-05-03T10:33:50.185Z,355
2018-05-03T10:34:50.867Z,355
2018-05-03T10:35:51.599Z,360
2018-05-03T10:36:52.227Z,355
2018-05-03T10:37:52.915Z,355
2018-05-03T10:38:53.599Z,355
2018-05-03T10:39:54.281Z,355
2018-05-03T10:40:54.959Z,355
2018-05-03T10:41:55.693Z,355
2018-05-03T10:42:56.349Z,355
2018-05-03T10:43:57.013Z,355
2018-05-03T10:44:57.702Z,355
2018-05-03T10:45:58.378Z,355
2018-05-03T10:46:59.067Z,360
2018-05-03T10:47:59.743Z,365
2018-05-03T10:49:00.464Z,365
2018-05-03T10:50:01.120Z,365
2018-05-03T10:51:01.802Z,365
2018-05-03T10:52:02.490Z,365
2018-05-03T10:53:03.169Z,365
2018-05-03T10:54:03.853Z,365
2018-05-03T10:55:04.533Z,370
2018-05-03T10:56:05.221Z,370
2018-05-03T10:57:05.905Z,370
2018-05-03T10:58:06.588Z,370
2018-05-03T10:59:07.270Z,370
2018-05-03T11:00:07.951Z,370
2018-05-03T11:01:08.632Z,370
2018-05-03T11:02:09.322Z,375
2018-05-03T11:03:10.010Z,375
2018-05-03T11:04:10.698Z,380
2018-05-03T11:05:11.383Z,390
2018-05-03T11:06:12.056Z,390
2018-05-03T11:07:12.734Z,395
2018-05-03T11:08:13.417Z,390
2018-05-03T11:09:14.098Z,385
2018-05-03T11:10:14.792Z,375
2018-05-03T11:11:15.652Z,365
2018-05-03T11:12:16.153Z,355
2018-05-03T11:13:16.837Z,350
2018-05-03T11:14:17.518Z,340
2018-05-03T11:15:18.210Z,330
2018-05-03T11:16:18.880Z,330
2018-05-03T11:17:19.561Z,330
2018-05-03T11:18:20.244Z,330
2018-05-03T11:19:20.929Z,325
2018-05-03T11:20:21.614Z,325
2018-05-03T11:21:22.296Z,330
2018-05-03T11:22:22.977Z,335
2018-05-03T11:23:23.659Z,340
2018-05-03T11:24:24.344Z,345
2018-05-03T11:25:25.032Z,345
2018-05-03T11:26:25.710Z,345
2018-05-03T11:27:26.396Z,345
2018-05-03T11:28:27.082Z,345
2018-05-03T11:29:27.764Z,350
2018-05-03T11:30:28.447Z,355
2018-05-03T11:31:29.135Z,365
2018-05-03T11:32:29.812Z,375
2018-05-03T11:33:30.500Z,390
2018-05-03T11:34:31.195Z,400
2018-05-03T11:35:31.873Z,405
2018-05-03T11:36:32.564Z,405
2018-05-03T11:37:33.243Z,400
2018-05-03T11:38:33.922Z,395
2018-05-03T11:39:34.613Z,390
2018-05-03T11:40:35.298Z,400
2018-05-03T11:41:35.982Z,410
2018-05-03T11:42:36.745Z,420
2018-05-03T11:43:37.353Z,430
2018-05-03T11:44:38.028Z,435
2018-05-03T11:45:38.725Z,435
2018-05-03T11:46:39.406Z,440
2018-05-03T11:47:40.096Z,440
2018-05-03T11:48:40.857Z,455
2018-05-03T11:49:41.458Z,480
2018-05-03T11:50:42.141Z,500
2018-05-03T11:51:42.824Z,540
2018-05-03T11:52:43.519Z,575
2018-05-03T11:53:44.201Z,610
2018-05-03T11:54:44.897Z,640
2018-05-03T11:55:45.579Z,645
2018-05-03T11:56:46.260Z,680
2018-05-03T11:57:46.948Z,640
2018-05-03T11:58:47.636Z,595
2018-05-03T11:59:48.317Z,600
2018-05-03T12:00:48.997Z,620
2018-05-03T12:01:49.677Z,625
2018-05-03T12:02:50.368Z,635
2018-05-03T12:03:51.052Z,655
2018-05-03T12:04:51.731Z,660
2018-05-03T12:05:52.437Z,690
2018-05-03T12:06:53.117Z,670
2018-05-03T12:07:53.800Z,675
2018-05-03T12:08:54.487Z,670
2018-05-03T12:09:55.169Z,670
2018-05-03T12:10:55.867Z,640
2018-05-03T12:11:56.547Z,610
2018-05-03T12:12:57.239Z,615
2018-05-03T12:13:57.939Z,620
2018-05-03T12:14:58.624Z,635
2018-05-03T12:15:59.313Z,630
2018-05-03T12:17:00.006Z,645
2018-05-03T12:18:00.692Z,640
2018-05-03T12:19:01.380Z,645
2018-05-03T12:20:02.063Z,670
2018-05-03T12:21:02.750Z,720
2018-05-03T12:22:03.433Z,740
2018-05-03T12:23:04.118Z,730
2018-05-03T12:24:04.807Z,750
2018-05-03T12:25:05.494Z,780
2018-05-03T12:26:06.175Z,760
2018-05-03T12:27:06.856Z,785
2018-05-03T12:28:07.539Z,755
2018-05-03T12:29:08.230Z,765
2018-05-03T12:30:08.915Z,745
2018-05-03T12:31:09.602Z,735
2018-05-03T12:32:10.288Z,700
2018-05-03T12:33:10.972Z,690
2018-05-03T12:34:11.660Z,690
2018-05-03T12:35:12.360Z,710
2018-05-03T12:36:13.048Z,705
2018-05-03T12:37:13.743Z,710
2018-05-03T12:38:14.430Z,685
2018-05-03T12:39:15.119Z,695
2018-05-03T12:40:15.805Z,685
2018-05-03T12:41:16.494Z,690
2018-05-03T12:42:17.184Z,695
2018-05-03T12:43:17.867Z,680
2018-05-03T12:44:18.562Z,690
2018-05-03T12:45:19.251Z,695
2018-05-03T12:46:19.936Z,685
2018-05-03T12:47:20.624Z,670
2018-05-03T12:48:21.309Z,680
2018-05-03T12:49:21.993Z,685
2018-05-03T12:50:22.680Z,690
2018-05-03T12:51:23.366Z,695
2018-05-03T12:52:24.052Z,700
2018-05-03T12:53:24.753Z,705
2018-05-03T12:54:25.451Z,690
2018-05-03T12:55:26.123Z,665
2018-05-03T12:56:26.819Z,665
2018-05-03T12:57:27.511Z,710
2018-05-03T12:58:28.202Z,660
2018-05-03T12:59:28.891Z,675
2018-05-03T13:00:29.578Z,620
2018-05-03T13:01:30.269Z,610
2018-05-03T13:02:30.956Z,610
2018-05-03T13:03:31.648Z,610
2018-05-03T13:04:32.336Z,610
2018-05-03T13:05:33.022Z,635
2018-05-03T13:06:33.714Z,630
2018-05-03T13:07:34.399Z,610
2018-05-03T13:08:35.084Z,600
2018-05-03T13:09:35.771Z,690
2018-05-03T13:10:36.461Z,715
2018-05-03T13:11:37.147Z,730
2018-05-03T13:12:37.850Z,690
2018-05-03T13:13:38.539Z,690
2018-05-03T13:14:39.220Z,730
2018-05-03T13:15:39.919Z,715
2018-05-03T13:16:40.607Z,705
2018-05-03T13:17:41.283Z,595
2018-05-03T13:18:41.975Z,585
2018-05-03T13:19:42.660Z,675
2018-05-03T13:20:43.346Z,710
2018-05-03T13:21:44.030Z,600
2018-05-03T13:22:44.734Z,570
2018-05-03T13:23:45.418Z,805
2018-05-03T13:24:46.115Z,1445
2018-05-03T13:25:46.812Z,1350
2018-05-03T13:26:47.508Z,890
2018-05-03T13:27:48.209Z,445
2018-05-03T13:28:48.896Z,500
2018-05-03T13:29:49.587Z,840
2018-05-03T13:30:50.272Z,580
2018-05-03T13:31:50.959Z,565
2018-05-03T13:32:51.650Z,1345
2018-05-03T13:33:52.346Z,1460
2018-05-03T13:34:53.037Z,1360
2018-05-03T13:35:53.721Z,985
2018-05-03T13:36:54.410Z,955
2018-05-03T13:37:55.097Z,860
2018-05-03T13:38:55.788Z,1995
2018-05-03T13:39:56.485Z,1895
2018-05-03T13:40:57.178Z,895
2018-05-03T13:41:57.871Z,1110
2018-05-03T13:42:58.557Z,1085
2018-05-03T13:43:59.247Z,565
2018-05-03T13:44:59.933Z,450
2018-05-03T13:46:00.624Z,455
2018-05-03T13:47:01.318Z,385
2018-05-03T13:48:02.003Z,320
2018-05-03T13:49:02.692Z,290
2018-05-03T13:50:03.374Z,275
2018-05-03T13:51:04.064Z,270
2018-05-03T13:52:04.757Z,280
2018-05-03T13:53:05.442Z,310
2018-05-03T13:54:06.132Z,315
2018-05-03T13:55:06.819Z,320
2018-05-03T13:56:07.514Z,345
2018-05-03T13:57:08.198Z,365
2018-05-03T13:58:08.883Z,470
2018-05-03T13:59:09.573Z,420
2018-05-03T14:00:10.256Z,580
2018-05-03T14:01:10.949Z,595
2018-05-03T14:02:11.632Z,645
2018-05-03T14:03:12.317Z,685
2018-05-03T14:04:13.011Z,1445
2018-05-03T14:05:13.698Z,1000
2018-05-03T14:06:14.384Z,740
2018-05-03T14:07:15.130Z,615
2018-05-03T14:08:15.763Z,670
2018-05-03T14:09:16.458Z,1435
2018-05-03T14:10:17.147Z,805
2018-05-03T14:11:17.829Z,1420
2018-05-03T14:12:18.518Z,930
2018-05-03T14:13:19.205Z,1375
2018-05-03T14:14:19.893Z,825
2018-05-03T14:15:20.588Z,1155
2018-05-03T14:16:21.278Z,1615